Berkeley, California
Current Conditions -  °F | °C
As of 3:53 PM on Monday 20 Oct 2014 (Local Time) from KOAK Reporting Station
Broken Clouds Broken Clouds  
Wind Chill: 69°   Ceiling: 5500
Heat Index: 69°   Visibility: 10mi
Dew Point: 54°   Wind: 17mph
Humidity: 58%   Direction: 270°W
Pressure: 29.97"   Gusts: NA
Location:  37.87°N, 122.27°W
Report Text: KOAK 202253Z 27015KT 10SM FEW010 BKN055 BKN220 21/12 A2997 RMK AO2 SLP148 T02060122
Loading
Personal Weather Stations






























Interactive Weather Map
Tropical Storm Tracking
New forecast layout! Learn more

10-Day Weather Forecast

Advertisements
Track Severe Weather on mobile